Flight Track Log - Related Links

Times and Time Zones

All times are in EDT time to prevent confusion due to time zone crossing. See the VH-ZOR flight status page for this flight to view local times or setup timezone preferences in your user account.

Time Position Orientation Groundspeed Altitude Reporting Facility
EDT Latitude Longitude Course Direction KTS MPH feet Rate Location/Type
Tue 01:18:01 AM -18.1863 125.5057 360° North 20,000  Level Aus ATC (Calculated)
Tue 01:18:10 AM -18.1863 125.5057 274° West 20,000  Level Aus ATC (Calculated)
Tue 01:18:56 AM -18.1825 125.4510 292° West 20,000  Level Aus ATC (Calculated)
Tue 01:18:56 AM -18.1825 125.4510 274° West 20,000  Level Aus ATC (Calculated)
Tue 01:21:56 AM -18.1712 125.2871 274° West 20,000  Level Aus ATC (Calculated)
Tue 01:22:41 AM -18.1673 125.2325 274° West 20,000  Level Aus ATC (Calculated)
Tue 01:27:11 AM -18.1480 124.9593 274° West 20,000  Level Aus ATC (Calculated)
Tue 01:29:34 AM -18.1362 124.7955 274° West 20,000  Level Aus ATC (Calculated)
Tue 01:31:06 AM -18.1283 124.6862 274° West 20,000  Level Aus ATC (Calculated)
Tue 01:32:15 AM -18.1231 124.6142 274° West  Level FlightAware Approximate
Tue 01:35:11 AM -18.1123 124.4678 274° West 20,000  Level Aus ATC (Calculated)
Tue 01:39:54 AM -18.0919 124.1948 275° West 20,000  Level Aus ATC (Calculated)
Tue 01:42:20 AM -18.0795 124.0311 275° West 20,000  Level Aus ATC (Calculated)
Tue 01:43:52 AM -18.0711 123.9219 274° West 20,000 -3,774 Level Aus ATC (Calculated)
Tue 01:47:30 AM -18.0558 123.7141 274° West 500 -4,500 Descending Aus ATC (Calculated)
Tue 01:48:12 AM -18.0488 123.6155 274° West 500  Level Aus ATC (Calculated)
Tue 01:49:15 AM -18.0441 123.5497 274° West  Level Estimated
Tue 01:50:15 AM -18.0391 123.4791 274° West  Level FlightAware Approximate
Tue 01:55:45 AM -18.0133 123.1224 360° North 500  Level Aus ATC (Calculated)
Tue 01:55:47 AM -18.0133 123.1224 North 500  Level Aus ATC (Calculated)
Tue 01:55:47 AM -18.0133 123.1224 274° West 500  Level Aus ATC (Calculated)
Tue 01:57:15 AM -18.0064 123.0305 274° West  Level Estimated
Tue 01:58:15 AM -18.0028 122.9789 275° West  Level FlightAware Approximate
Tue 01:59:15 AM -17.9980 122.9163 274° West  Level Estimated
Tue 02:00:15 AM -17.9926 122.8425 274° West  Level FlightAware Approximate
Tue 02:04:59 AM -17.9691 122.5309 360° North 500  Level Aus ATC (Calculated)
Tue 02:04:59 AM -17.9691 122.5309 275° West 500  Level Aus ATC (Calculated)
Tue 02:06:15 AM -17.9627 122.4517 274° West  Level Estimated
Tue 02:07:15 AM -17.9593 122.4031 275° West  Level FlightAware Approximate
Tue 02:08:15 AM -17.9525 122.3265 273° West  Level Estimated
Tue 02:09:15 AM -17.9499 122.2819 276° West  Level FlightAware Approximate
Tue 02:10:15 AM -17.9435 122.2195 101° East  Level Estimated
Tue 02:11:15 AM -17.9463 122.2353 295° West  Level FlightAware Approximate
Tue 02:12:15 AM -17.9214 122.1782 115° Southeast  Level Estimated
Tue 02:13:15 AM -17.9463 122.2353 295° West  Level FlightAware Approximate
Tue 02:14:15 AM -17.9214 122.1782 115° Southeast  Level Estimated
Tue 02:15:15 AM -17.9463 122.2353 295° West  Level FlightAware Approximate
Tue 02:16:15 AM -17.9214 122.1782 115° Southeast  Level Estimated
Tue 02:17:15 AM -17.9463 122.2353 295° West  Level FlightAware Approximate
Tue 02:18:15 AM -17.9214 122.1782 115° Southeast  Level Estimated
Tue 02:19:15 AM -17.9463 122.2353 295° West  Level FlightAware Approximate
Tue 02:20:15 AM -17.9214 122.1782 115° Southeast  Level Estimated
Tue 02:21:15 AM -17.9463 122.2353 295° West  Level FlightAware Approximate
Tue 02:22:15 AM -17.9214 122.1782 115° Southeast  Level Estimated
Tue 02:23:15 AM -17.9463 122.2353 295° West  Level FlightAware Approximate
Tue 02:24:15 AM -17.9214 122.1782 115° Southeast  Level Estimated
Tue 02:25:15 AM -17.9463 122.2353 115° Southeast  Level FlightAware Approximate

Login

Don't have an account? Register now (free) for customized features, flight alerts, and more!